Time;durP1;ratioP1;P1;durP2;ratioP2;P2;SDS_P1;SDS_P2;PMS_P1;PMS_P2;Temp;Humidity;BMP_temperature;BMP_pressure;BME280_temperature;BME280_humidity;BME280_pressure;Samples;Min_cycle;Max_cycle;Signal;HPM_P1;HPM_P2
2024/01/17 00:00:29;;;;;;;41.07;19.40;;;-1.30;1.00;;;;;;5010528;28;20509;-53
2024/01/17 00:02:55;;;;;;;35.87;19.87;;;-1.30;1.00;;;;;;5011647;28;20188;-52
2024/01/17 00:05:22;;;;;;;34.70;19.67;;;-1.30;1.00;;;;;;5010708;28;20191;-52
2024/01/17 00:07:47;;;;;;;39.93;20.00;;;-1.20;1.00;;;;;;5011140;28;20506;-51
2024/01/17 00:10:13;;;;;;;36.40;19.63;;;-1.20;99.90;;;;;;5010064;28;20502;-52
2024/01/17 00:12:39;;;;;;;38.53;20.20;;;-1.20;99.90;;;;;;5011219;28;20188;-52
2024/01/17 00:15:05;;;;;;;34.10;19.60;;;-1.30;99.90;;;;;;5010991;28;20218;-51
2024/01/17 00:17:30;;;;;;;31.23;20.23;;;-1.30;99.90;;;;;;5011393;28;20188;-52
2024/01/17 00:19:56;;;;;;;37.60;21.60;;;-1.30;99.90;;;;;;5011207;28;20517;-52
2024/01/17 00:22:21;;;;;;;38.73;20.80;;;-1.30;99.90;;;;;;5009818;28;20640;-52
2024/01/17 00:24:48;;;;;;;32.83;19.57;;;-1.30;99.90;;;;;;5011773;28;20528;-52
2024/01/17 00:27:14;;;;;;;41.30;21.80;;;-1.30;99.90;;;;;;5010628;28;20254;-52
2024/01/17 00:29:40;;;;;;;40.07;20.67;;;-1.30;99.90;;;;;;5010485;28;21232;-52
2024/01/17 00:32:05;;;;;;;35.60;20.50;;;-1.30;99.90;;;;;;5010423;28;20191;-53
2024/01/17 00:34:31;;;;;;;35.57;21.07;;;-1.30;99.90;;;;;;5010641;28;20194;-52
2024/01/17 00:36:56;;;;;;;32.03;20.00;;;-1.40;99.90;;;;;;5011468;28;20191;-53
2024/01/17 00:39:25;;;;;;;33.30;20.90;;;-1.40;99.90;;;;;;5010737;28;20222;-52
2024/01/17 00:41:50;;;;;;;32.67;19.47;;;-1.50;99.90;;;;;;5010975;28;20181;-53
2024/01/17 00:44:18;;;;;;;30.13;19.43;;;-1.50;99.90;;;;;;5009682;28;20747;-53
2024/01/17 00:46:44;;;;;;;40.03;21.07;;;-1.50;99.90;;;;;;5010574;28;20191;-53
2024/01/17 00:49:10;;;;;;;44.37;21.40;;;-1.60;99.90;;;;;;5011611;28;20444;-52
2024/01/17 00:51:36;;;;;;;43.40;20.53;;;-1.50;99.90;;;;;;5011018;28;20427;-52
2024/01/17 00:54:01;;;;;;;39.73;21.10;;;-1.50;99.90;;;;;;5008470;28;20426;-52
2024/01/17 00:56:27;;;;;;;35.03;20.33;;;-1.40;99.90;;;;;;5010830;28;20184;-52
2024/01/17 00:58:52;;;;;;;44.07;19.83;;;-1.30;99.90;;;;;;5010882;28;20208;-53
2024/01/17 01:01:19;;;;;;;32.60;20.33;;;-1.20;99.90;;;;;;5010413;28;20283;-52
2024/01/17 01:03:45;;;;;;;34.07;19.73;;;-1.20;99.90;;;;;;5011134;28;20175;-52
2024/01/17 01:06:11;;;;;;;33.90;18.73;;;-1.20;99.90;;;;;;5010611;28;21010;-51
2024/01/17 01:08:36;;;;;;;35.53;18.80;;;-1.10;99.90;;;;;;5009932;28;20589;-52
2024/01/17 01:11:02;;;;;;;42.13;19.60;;;-1.10;99.90;;;;;;5010135;28;20182;-52
2024/01/17 01:13:27;;;;;;;29.27;18.67;;;-1.10;99.90;;;;;;5010708;28;20173;-52
2024/01/17 01:15:53;;;;;;;31.67;18.17;;;-1.10;99.90;;;;;;5010841;28;20186;-52
2024/01/17 01:18:18;;;;;;;27.97;18.43;;;-1.10;99.90;;;;;;5025420;28;20226;-52
2024/01/17 01:20:44;;;;;;;30.73;17.90;;;-1.00;99.90;;;;;;5011714;28;20194;-52
2024/01/17 01:23:09;;;;;;;36.43;19.40;;;-1.00;99.90;;;;;;5013654;28;20268;-52
2024/01/17 01:25:35;;;;;;;31.03;17.97;;;-1.00;99.90;;;;;;5013971;28;20206;-51
2024/01/17 01:28:00;;;;;;;27.80;17.43;;;-1.00;99.90;;;;;;5013409;28;20203;-52
2024/01/17 01:30:28;;;;;;;27.83;17.77;;;-1.00;99.90;;;;;;5013578;28;20187;-52
2024/01/17 01:32:53;;;;;;;34.40;17.77;;;-1.00;99.90;;;;;;5014079;28;20234;-52
2024/01/17 01:35:19;;;;;;;30.20;17.80;;;-1.00;99.90;;;;;;5013034;28;20418;-51
2024/01/17 01:37:44;;;;;;;31.00;17.00;;;-1.00;99.90;;;;;;5014105;28;20245;-52
2024/01/17 01:40:10;;;;;;;29.63;18.00;;;-0.90;99.90;;;;;;5012714;28;20190;-52
2024/01/17 01:42:36;;;;;;;32.30;17.80;;;-0.90;99.90;;;;;;5013351;28;20674;-52
2024/01/17 01:45:02;;;;;;;29.13;16.70;;;-0.90;99.90;;;;;;5013813;28;20422;-52
2024/01/17 01:47:28;;;;;;;34.60;18.20;;;-0.90;99.90;;;;;;5014456;28;20505;-52
2024/01/17 01:49:54;;;;;;;32.97;17.27;;;-0.90;99.90;;;;;;5010866;28;20310;-53
2024/01/17 01:52:21;;;;;;;28.13;17.13;;;-0.90;99.90;;;;;;5014244;28;20179;-53
2024/01/17 01:54:47;;;;;;;31.03;17.40;;;-0.90;99.90;;;;;;5014244;28;20468;-53
2024/01/17 01:57:14;;;;;;;26.20;17.57;;;-0.90;99.90;;;;;;5013019;28;20422;-53
2024/01/17 01:59:40;;;;;;;32.37;18.97;;;-0.90;99.90;;;;;;5012807;28;20501;-52
2024/01/17 02:02:07;;;;;;;36.40;16.90;;;-0.90;99.90;;;;;;5011959;28;20498;-52
2024/01/17 02:04:34;;;;;;;33.73;17.90;;;-0.90;99.90;;;;;;5013484;28;20422;-53
2024/01/17 02:07:01;;;;;;;35.67;19.00;;;-0.90;99.90;;;;;;5013069;28;20472;-52
2024/01/17 02:09:29;;;;;;;37.37;17.40;;;-0.90;99.90;;;;;;5013655;28;20513;-52
2024/01/17 02:11:57;;;;;;;29.83;16.57;;;-0.90;99.90;;;;;;5012544;28;20413;-53
2024/01/17 02:14:24;;;;;;;34.80;19.50;;;-0.90;99.90;;;;;;5012165;28;20785;-53
2024/01/17 02:16:49;;;;;;;34.43;18.63;;;-0.90;99.90;;;;;;5012931;28;20446;-52
2024/01/17 02:19:17;;;;;;;27.57;17.63;;;-1.00;99.90;;;;;;5012665;28;20962;-52
2024/01/17 02:21:42;;;;;;;34.90;19.97;;;-1.00;99.90;;;;;;5013143;28;20246;-52
2024/01/17 02:24:23;;;;;;;30.50;18.60;;;-1.00;99.90;;;;;;5013245;28;20419;-52
2024/01/17 02:26:49;;;;;;;30.60;18.83;;;-1.00;99.90;;;;;;5012250;28;20602;-52
2024/01/17 02:29:15;;;;;;;30.40;18.37;;;-1.00;99.90;;;;;;5011809;28;20422;-52
2024/01/17 02:31:41;;;;;;;32.87;17.47;;;-1.00;99.90;;;;;;5012928;28;20470;-52
2024/01/17 02:34:07;;;;;;;37.47;18.60;;;-1.00;99.90;;;;;;5013031;28;20198;-52
2024/01/17 02:36:32;;;;;;;35.43;16.67;;;-1.00;99.90;;;;;;5011458;28;20415;-52
2024/01/17 02:38:58;;;;;;;36.83;18.60;;;-1.10;99.90;;;;;;5012848;28;20729;-52
2024/01/17 02:41:23;;;;;;;30.53;17.13;;;-1.10;99.90;;;;;;5010618;28;20932;-52
2024/01/17 02:43:49;;;;;;;30.50;17.50;;;-1.10;99.90;;;;;;5012189;28;20271;-52
2024/01/17 02:46:14;;;;;;;24.57;16.53;;;-1.10;99.90;;;;;;5012179;28;20212;-52
2024/01/17 02:48:40;;;;;;;28.00;16.40;;;-1.10;99.90;;;;;;5012943;28;20242;-52
2024/01/17 02:51:06;;;;;;;28.30;16.03;;;-1.10;99.90;;;;;;5011752;28;20183;-52
2024/01/17 02:53:31;;;;;;;33.77;17.13;;;-1.10;99.90;;;;;;5011684;28;20824;-53
2024/01/17 02:55:57;;;;;;;36.43;16.13;;;-1.10;99.90;;;;;;5011396;28;20249;-52
2024/01/17 02:58:22;;;;;;;26.37;15.43;;;-1.10;99.90;;;;;;5012459;28;20257;-53
2024/01/17 03:00:48;;;;;;;35.97;16.17;;;-1.10;99.90;;;;;;5012056;28;20184;-52
2024/01/17 03:03:14;;;;;;;26.00;15.40;;;-1.20;99.90;;;;;;5012193;28;20187;-53
2024/01/17 03:05:40;;;;;;;25.67;16.03;;;-1.20;99.90;;;;;;5011339;28;20628;-53
2024/01/17 03:08:06;;;;;;;26.47;15.40;;;-1.20;99.90;;;;;;5010941;28;20474;-52
2024/01/17 03:10:32;;;;;;;24.80;15.50;;;-1.20;99.90;;;;;;5012385;28;20263;-53
2024/01/17 03:12:58;;;;;;;33.53;16.07;;;-1.10;99.90;;;;;;5012415;28;20422;-52
2024/01/17 03:15:23;;;;;;;27.43;16.77;;;-1.20;99.90;;;;;;5011011;28;21025;-53
2024/01/17 03:17:49;;;;;;;39.90;17.83;;;-1.20;99.90;;;;;;5012019;28;20180;-51
2024/01/17 03:20:15;;;;;;;33.50;16.80;;;-1.20;99.90;;;;;;5011868;28;20667;-50
2024/01/17 03:22:41;;;;;;;29.33;17.50;;;-1.20;99.90;;;;;;5011336;28;20434;-53
2024/01/17 03:25:08;;;;;;;28.10;17.30;;;-1.20;99.90;;;;;;5012322;28;20416;-51
2024/01/17 03:27:33;;;;;;;29.63;16.30;;;-1.20;99.90;;;;;;5011051;28;20270;-51
2024/01/17 03:29:59;;;;;;;30.40;16.47;;;-1.10;99.90;;;;;;5011461;28;20450;-52
2024/01/17 03:32:24;;;;;;;27.77;17.27;;;-1.20;99.90;;;;;;5011223;28;20677;-51
2024/01/17 03:34:51;;;;;;;27.70;16.77;;;-1.20;99.90;;;;;;5011655;28;20188;-52
2024/01/17 03:37:18;;;;;;;32.87;17.33;;;-1.20;99.90;;;;;;5011278;28;20644;-52
2024/01/17 03:39:44;;;;;;;28.03;16.97;;;-1.20;99.90;;;;;;5011593;28;20467;-52
2024/01/17 03:42:15;;;;;;;31.27;17.63;;;-1.30;99.90;;;;;;5012526;28;20450;-51
2024/01/17 03:44:42;;;;;;;29.17;18.20;;;-1.30;99.90;;;;;;5010959;28;20455;-51
2024/01/17 03:47:08;;;;;;;29.00;18.20;;;-1.30;99.90;;;;;;5011255;28;20423;-52
2024/01/17 03:49:33;;;;;;;34.97;18.60;;;-1.30;99.90;;;;;;5011155;28;20419;-52
2024/01/17 03:51:59;;;;;;;35.17;19.00;;;-1.40;99.90;;;;;;5010790;28;20238;-52
2024/01/17 03:54:25;;;;;;;31.20;18.30;;;-1.30;99.90;;;;;;5012168;28;20644;-52
2024/01/17 03:56:50;;;;;;;34.77;17.00;;;-1.30;99.90;;;;;;5011276;28;20188;-52
2024/01/17 03:59:16;;;;;;;32.50;17.80;;;-1.40;99.90;;;;;;5010898;28;20285;-53
2024/01/17 04:01:43;;;;;;;29.47;17.90;;;-1.40;99.90;;;;;;5009593;28;20187;-53
2024/01/17 04:04:09;;;;;;;32.53;18.13;;;-1.40;99.90;;;;;;5011762;28;20202;-52
2024/01/17 04:06:35;;;;;;;32.10;17.00;;;-1.40;99.90;;;;;;5011053;28;20426;-52
2024/01/17 04:09:00;;;;;;;33.67;17.87;;;-1.50;99.90;;;;;;5011549;28;20462;-52
2024/01/17 04:11:26;;;;;;;37.53;19.50;;;-1.50;99.90;;;;;;5010499;28;20183;-54
2024/01/17 04:13:51;;;;;;;36.33;18.77;;;-1.60;99.90;;;;;;5010062;28;20179;-53
2024/01/17 04:16:17;;;;;;;34.33;18.37;;;-1.50;99.90;;;;;;5011049;28;20211;-52
2024/01/17 04:18:43;;;;;;;31.20;19.00;;;-1.60;99.90;;;;;;5010567;28;20243;-52
2024/01/17 04:21:15;;;;;;;31.63;17.93;;;-1.50;99.90;;;;;;5011060;28;20458;-53
2024/01/17 04:23:40;;;;;;;35.00;18.93;;;-1.50;99.90;;;;;;5010435;28;20268;-52
2024/01/17 04:26:06;;;;;;;36.20;18.40;;;-1.50;99.90;;;;;;5011529;28;20501;-52
2024/01/17 04:28:32;;;;;;;29.00;17.13;;;-1.50;99.90;;;;;;5010162;28;20219;-53
2024/01/17 04:30:57;;;;;;;28.23;17.13;;;-1.60;99.90;;;;;;5010843;28;20546;-54
2024/01/17 04:33:23;;;;;;;32.63;18.40;;;-1.60;99.90;;;;;;5009295;28;20188;-54
2024/01/17 04:35:49;;;;;;;30.37;17.50;;;-1.60;99.90;;;;;;5010464;28;20188;-53
2024/01/17 04:38:15;;;;;;;30.70;17.20;;;-1.60;99.90;;;;;;5010167;28;20214;-53
2024/01/17 04:40:40;;;;;;;37.03;18.07;;;-1.60;99.90;;;;;;5011295;28;20491;-53
2024/01/17 04:43:06;;;;;;;30.80;16.60;;;-1.60;99.90;;;;;;5009738;28;20184;-53
2024/01/17 04:45:32;;;;;;;34.93;18.53;;;-1.70;99.90;;;;;;5011312;28;20270;-53
2024/01/17 04:47:57;;;;;;;33.87;18.07;;;-1.70;99.90;;;;;;5010383;28;20499;-52
2024/01/17 04:50:23;;;;;;;32.90;18.70;;;-1.70;99.90;;;;;;5010908;28;20192;-53
2024/01/17 04:52:50;;;;;;;29.77;16.90;;;-1.80;99.90;;;;;;5009766;28;20279;-53
2024/01/17 04:55:15;;;;;;;30.23;17.17;;;-1.80;99.90;;;;;;5011820;28;20192;-53
2024/01/17 04:57:41;;;;;;;29.93;18.80;;;-1.80;99.90;;;;;;5014967;28;20418;-54
2024/01/17 05:00:08;;;;;;;33.63;18.03;;;-1.80;99.90;;;;;;5014824;28;20261;-53
2024/01/17 05:02:34;;;;;;;34.83;18.13;;;-1.70;99.90;;;;;;5014038;28;20908;-52
2024/01/17 05:05:00;;;;;;;29.70;17.33;;;-1.70;99.90;;;;;;5013826;28;20449;-53
2024/01/17 05:07:25;;;;;;;31.00;16.87;;;-1.70;99.90;;;;;;5013459;28;20190;-52
2024/01/17 05:09:51;;;;;;;31.97;16.40;;;-1.70;99.90;;;;;;5015088;28;20239;-52
2024/01/17 05:12:16;;;;;;;31.50;17.67;;;-1.70;99.90;;;;;;5014477;28;20303;-52
2024/01/17 05:14:42;;;;;;;29.87;16.90;;;-1.60;99.90;;;;;;5013251;28;20183;-53
2024/01/17 05:17:08;;;;;;;26.07;17.27;;;-1.60;99.90;;;;;;5013855;28;20176;-52
2024/01/17 05:19:34;;;;;;;28.83;17.73;;;-1.60;99.90;;;;;;5014668;28;21075;-53
2024/01/17 05:21:59;;;;;;;30.10;17.83;;;-1.60;99.90;;;;;;5013183;28;20590;-53
2024/01/17 05:24:25;;;;;;;30.77;17.20;;;-1.60;99.90;;;;;;5013764;28;20200;-53
2024/01/17 05:26:51;;;;;;;25.40;16.90;;;-1.60;99.90;;;;;;5013362;28;20189;-53
2024/01/17 05:29:16;;;;;;;34.63;16.73;;;-1.60;99.90;;;;;;5013488;28;20282;-55
2024/01/17 05:31:42;;;;;;;28.50;15.47;;;-1.50;99.90;;;;;;5013760;28;20187;-54
2024/01/17 05:34:07;;;;;;;23.27;15.90;;;-1.50;99.90;;;;;;5012141;28;20180;-53
2024/01/17 05:36:33;;;;;;;27.90;16.80;;;-1.50;99.90;;;;;;5014598;28;20183;-53
2024/01/17 05:38:58;;;;;;;26.30;16.77;;;-1.50;99.90;;;;;;5013969;28;20216;-54
2024/01/17 05:41:24;;;;;;;28.37;16.23;;;-1.40;99.90;;;;;;5013715;28;20187;-53
2024/01/17 05:43:49;;;;;;;30.80;16.97;;;-1.40;99.90;;;;;;5011892;28;20219;-54
2024/01/17 05:46:15;;;;;;;28.03;16.60;;;-1.40;99.90;;;;;;5012826;28;20187;-54
2024/01/17 05:48:40;;;;;;;27.43;15.97;;;-1.40;99.90;;;;;;5014524;28;20181;-53
2024/01/17 05:51:06;;;;;;;25.50;16.40;;;-1.40;99.90;;;;;;5013795;28;20199;-54
2024/01/17 05:53:32;;;;;;;25.83;14.67;;;-1.30;99.90;;;;;;5012170;28;20543;-54
2024/01/17 05:55:57;;;;;;;25.23;15.97;;;-1.20;99.90;;;;;;5012824;28;20184;-54
2024/01/17 05:58:23;;;;;;;23.57;14.87;;;-1.20;99.90;;;;;;5013342;28;20220;-54
2024/01/17 06:00:48;;;;;;;26.43;15.10;;;-1.20;99.90;;;;;;5013340;28;20180;-54
2024/01/17 06:03:15;;;;;;;27.80;15.40;;;-1.20;99.90;;;;;;5012366;28;20187;-54
2024/01/17 06:05:40;;;;;;;32.13;14.77;;;-1.20;99.90;;;;;;5012686;28;20521;-55
2024/01/17 06:08:06;;;;;;;27.60;15.17;;;-1.20;99.90;;;;;;5012790;28;20474;-54
2024/01/17 06:10:32;;;;;;;24.37;15.77;;;-1.10;99.90;;;;;;5012422;28;20180;-53
2024/01/17 06:12:58;;;;;;;29.60;15.70;;;-1.10;99.90;;;;;;5012932;28;20641;-53
2024/01/17 06:15:24;;;;;;;24.87;13.63;;;-1.20;99.90;;;;;;5013259;28;20509;-53
2024/01/17 06:17:49;;;;;;;26.37;14.60;;;-1.10;99.90;;;;;;5013004;28;20184;-53
2024/01/17 06:20:15;;;;;;;25.73;14.10;;;-1.10;99.90;;;;;;5011590;28;20550;-53
2024/01/17 06:22:41;;;;;;;29.97;15.70;;;-1.00;99.90;;;;;;5013718;28;20190;-53
2024/01/17 06:25:07;;;;;;;26.90;15.00;;;-1.10;99.90;;;;;;5012324;28;20485;-54
2024/01/17 06:27:33;;;;;;;25.23;15.20;;;-1.10;99.90;;;;;;5013384;28;20729;-52
2024/01/17 06:29:58;;;;;;;29.70;14.57;;;-1.00;99.90;;;;;;5013233;28;20415;-53
2024/01/17 06:32:24;;;;;;;29.40;13.60;;;-1.00;99.90;;;;;;5012680;28;20187;-53
2024/01/17 06:34:50;;;;;;;26.33;14.13;;;-1.00;99.90;;;;;;5011413;28;20207;-53
2024/01/17 06:37:16;;;;;;;25.93;14.30;;;-1.00;99.90;;;;;;5013753;28;20242;-53
2024/01/17 06:39:43;;;;;;;29.57;14.17;;;-1.00;99.90;;;;;;5011734;28;20454;-54
2024/01/17 06:42:09;;;;;;;27.93;13.60;;;-1.00;99.90;;;;;;5013579;28;20192;-53
2024/01/17 06:44:35;;;;;;;21.50;13.40;;;-1.00;99.50;;;;;;5010472;28;20423;-53
2024/01/17 06:47:01;;;;;;;20.10;12.27;;;-1.00;98.70;;;;;;5012810;28;21410;-53
2024/01/17 06:49:26;;;;;;;26.03;13.10;;;-1.00;95.50;;;;;;5012313;28;20249;-53
2024/01/17 06:51:52;;;;;;;25.97;13.00;;;-1.10;94.90;;;;;;5012499;28;20180;-53
2024/01/17 06:54:18;;;;;;;25.33;13.47;;;-1.10;97.90;;;;;;5011394;28;20505;-52
2024/01/17 06:56:44;;;;;;;32.50;12.87;;;-1.10;94.80;;;;;;5011449;28;20184;-53
2024/01/17 06:59:10;;;;;;;21.27;13.30;;;-1.10;93.90;;;;;;5012495;28;20203;-52
2024/01/17 07:01:37;;;;;;;28.63;12.13;;;-1.10;91.70;;;;;;5012776;28;20419;-52
2024/01/17 07:04:03;;;;;;;23.97;12.27;;;-1.00;90.20;;;;;;5011721;28;20779;-53
2024/01/17 07:06:29;;;;;;;24.23;11.47;;;-1.00;89.40;;;;;;5011855;28;20415;-52
2024/01/17 07:08:54;;;;;;;28.43;12.20;;;-1.00;84.30;;;;;;5011724;28;20286;-52
2024/01/17 07:11:20;;;;;;;22.20;11.40;;;-1.00;71.80;;;;;;5011958;28;20187;-52
2024/01/17 07:13:45;;;;;;;20.43;11.03;;;-1.00;65.90;;;;;;5011679;28;20186;-53
2024/01/17 07:16:17;;;;;;;20.80;11.50;;;-1.00;67.80;;;;;;5011442;28;20181;-53
2024/01/17 07:18:42;;;;;;;20.30;11.20;;;-1.00;64.30;;;;;;5011532;28;20239;-53
2024/01/17 07:21:08;;;;;;;21.40;11.27;;;-1.10;67.30;;;;;;5011748;28;20823;-53
2024/01/17 07:23:34;;;;;;;20.30;10.53;;;-1.10;65.80;;;;;;5011423;28;20529;-53
2024/01/17 07:26:00;;;;;;;15.73;9.63;;;-1.10;62.00;;;;;;5011373;28;20208;-52
2024/01/17 07:28:26;;;;;;;19.00;10.57;;;-1.00;57.70;;;;;;5012335;28;20915;-53
2024/01/17 07:30:51;;;;;;;19.43;12.70;;;-1.00;52.70;;;;;;5012328;28;20184;-54
2024/01/17 07:33:17;;;;;;;17.27;9.00;;;-1.00;49.70;;;;;;5011071;28;20230;-54
2024/01/17 07:35:42;;;;;;;19.63;9.80;;;-1.00;45.50;;;;;;5010883;28;20176;-53
2024/01/17 07:38:08;;;;;;;18.80;8.63;;;-1.00;37.50;;;;;;5011201;28;20179;-54
2024/01/17 07:40:34;;;;;;;22.13;9.40;;;-1.10;35.90;;;;;;5012050;28;20183;-53
2024/01/17 07:42:59;;;;;;;20.67;9.50;;;-1.10;38.40;;;;;;5011268;28;20226;-53
2024/01/17 07:45:26;;;;;;;17.97;8.97;;;-1.00;35.20;;;;;;5010216;28;20181;-53
2024/01/17 07:47:51;;;;;;;19.57;9.10;;;-1.00;29.50;;;;;;5011810;28;20241;-53
2024/01/17 07:50:17;;;;;;;18.17;8.23;;;-1.00;28.80;;;;;;5011465;28;20778;-53
2024/01/17 07:52:42;;;;;;;14.17;8.20;;;-1.00;20.60;;;;;;5010933;28;20180;-54
2024/01/17 07:55:08;;;;;;;16.70;8.53;;;-1.00;16.90;;;;;;5011218;28;20653;-53
2024/01/17 07:57:34;;;;;;;16.53;7.87;;;-0.90;12.80;;;;;;5011449;28;20184;-53
2024/01/17 07:59:59;;;;;;;19.37;8.10;;;-1.00;13.00;;;;;;5010631;28;20662;-53
2024/01/17 08:02:25;;;;;;;18.83;8.80;;;-0.90;10.50;;;;;;5011017;28;20188;-54
2024/01/17 08:04:52;;;;;;;17.97;8.63;;;-1.00;11.30;;;;;;5011478;28;20180;-53
2024/01/17 08:07:24;;;;;;;26.37;8.77;;;-1.00;7.10;;;;;;5010963;28;20184;-53
2024/01/17 08:09:53;;;;;;;16.23;7.80;;;-1.00;9.00;;;;;;5010991;28;20967;-53
2024/01/17 08:12:19;;;;;;;16.13;8.07;;;-1.00;10.10;;;;;;5010521;28;20430;-53
2024/01/17 08:14:45;;;;;;;16.43;7.80;;;-0.90;7.00;;;;;;5010312;28;20442;-53
2024/01/17 08:17:11;;;;;;;14.90;7.73;;;-0.90;5.40;;;;;;5010872;28;20429;-53
2024/01/17 08:19:37;;;;;;;17.33;8.13;;;-0.90;6.20;;;;;;5011275;28;20502;-53
2024/01/17 08:22:04;;;;;;;15.10;7.83;;;-0.90;2.50;;;;;;5011161;28;20450;-53
2024/01/17 08:24:30;;;;;;;13.43;7.73;;;-0.90;3.30;;;;;;5010586;28;20184;-53
2024/01/17 08:26:56;;;;;;;18.63;7.87;;;-0.80;1.00;;;;;;5011780;28;20488;-52
2024/01/17 08:29:22;;;;;;;18.30;8.20;;;-0.80;1.00;;;;;;5011168;28;20423;-53
2024/01/17 08:31:48;;;;;;;11.83;7.93;;;-0.80;1.00;;;;;;5015112;28;20407;-53
2024/01/17 08:34:14;;;;;;;14.30;8.27;;;-0.70;1.00;;;;;;5014596;28;20425;-53
2024/01/17 08:36:40;;;;;;;12.27;7.30;;;-0.70;1.00;;;;;;5015355;28;20183;-53
2024/01/17 08:39:06;;;;;;;11.07;5.90;;;-0.70;1.00;;;;;;5014187;28;21053;-53
2024/01/17 08:41:33;;;;;;;12.30;6.63;;;-0.70;1.00;;;;;;5014902;28;20188;-52
2024/01/17 08:44:01;;;;;;;14.53;6.83;;;-0.60;1.00;;;;;;5014198;28;20218;-53
2024/01/17 08:46:28;;;;;;;13.90;7.20;;;-0.70;1.00;;;;;;5015205;28;20411;-53
2024/01/17 08:48:54;;;;;;;10.10;6.87;;;-0.60;1.00;;;;;;5014222;28;20510;-53
2024/01/17 08:51:21;;;;;;;18.73;7.10;;;-0.60;1.00;;;;;;5013660;28;20966;-53
2024/01/17 08:53:47;;;;;;;8.80;5.73;;;-0.50;1.00;;;;;;5014760;28;20422;-54
2024/01/17 08:56:14;;;;;;;9.30;5.97;;;-0.40;1.00;;;;;;5014515;28;20422;-54
2024/01/17 08:58:40;;;;;;;12.67;6.70;;;-0.50;1.00;;;;;;5014929;28;20269;-53
2024/01/17 09:01:06;;;;;;;16.90;6.13;;;-0.50;1.00;;;;;;5014238;28;20410;-53
2024/01/17 09:03:34;;;;;;;12.83;6.40;;;-0.50;1.00;;;;;;5014055;28;20423;-54
2024/01/17 09:06:00;;;;;;;16.60;6.73;;;-0.40;1.00;;;;;;5014101;28;20190;-53
2024/01/17 09:08:26;;;;;;;12.97;6.60;;;-0.40;1.00;;;;;;5014116;28;20475;-53
2024/01/17 09:10:51;;;;;;;10.20;5.90;;;-0.30;1.00;;;;;;5014201;28;20915;-54
2024/01/17 09:13:17;;;;;;;16.97;6.87;;;-0.30;1.00;;;;;;5014741;28;20187;-54
2024/01/17 09:15:43;;;;;;;13.50;6.43;;;-0.20;1.00;;;;;;5014222;28;20192;-53
2024/01/17 09:18:08;;;;;;;11.23;6.00;;;-0.10;1.00;;;;;;5012970;28;20262;-52
2024/01/17 09:20:34;;;;;;;13.43;6.20;;;-0.10;1.00;;;;;;5013357;28;20188;-52
2024/01/17 09:22:59;;;;;;;10.20;6.07;;;-0.10;1.00;;;;;;5014213;28;20187;-52
2024/01/17 09:25:25;;;;;;;13.03;6.40;;;0.00;1.00;;;;;;5014694;28;20184;-52
2024/01/17 09:27:51;;;;;;;11.27;6.00;;;0.00;1.00;;;;;;5014191;28;20182;-53
2024/01/17 09:30:16;;;;;;;11.40;6.13;;;0.00;1.00;;;;;;5013221;28;20186;-53
2024/01/17 09:32:44;;;;;;;11.30;6.03;;;0.00;1.00;;;;;;5013057;28;20194;-53
2024/01/17 09:35:10;;;;;;;12.93;5.83;;;0.10;1.00;;;;;;5013820;28;20188;-53
2024/01/17 09:37:36;;;;;;;18.67;6.53;;;0.10;1.00;;;;;;5014202;28;20801;-53
2024/01/17 09:40:05;;;;;;;16.47;6.27;;;0.00;1.00;;;;;;5013847;28;21199;-53
2024/01/17 09:42:32;;;;;;;13.60;6.40;;;0.10;1.00;;;;;;5012468;28;20419;-53
2024/01/17 09:44:58;;;;;;;12.40;6.20;;;0.10;1.00;;;;;;5013719;28;20419;-52
2024/01/17 09:47:25;;;;;;;13.13;6.30;;;0.20;1.00;;;;;;5013314;28;20422;-53
2024/01/17 09:49:51;;;;;;;14.40;6.30;;;0.20;1.00;;;;;;5013647;28;20423;-53
2024/01/17 09:52:21;;;;;;;11.57;6.33;;;0.20;1.00;;;;;;5012816;28;20411;-53
2024/01/17 09:54:48;;;;;;;12.53;6.33;;;0.20;1.00;;;;;;5012987;28;20430;-53
2024/01/17 09:57:23;;;;;;;22.80;6.80;;;0.20;1.00;;;;;;5012454;28;20988;-53
2024/01/17 09:59:59;;;;;;;17.37;7.37;;;0.20;1.00;;;;;;5014057;28;20446;-52
2024/01/17 10:02:25;;;;;;;14.47;6.10;;;0.10;1.00;;;;;;5013483;28;20418;-53
2024/01/17 10:04:53;;;;;;;9.47;6.50;;;0.20;1.00;;;;;;5013405;28;20414;-52
2024/01/17 10:07:18;;;;;;;15.97;6.30;;;0.20;1.00;;;;;;5011961;28;20835;-52
2024/01/17 10:09:47;;;;;;;14.50;6.73;;;0.20;1.00;;;;;;5012805;28;20558;-52
2024/01/17 10:12:13;;;;;;;12.23;6.70;;;0.30;1.00;;;;;;5013359;28;20277;-52
2024/01/17 10:14:40;;;;;;;11.73;7.00;;;0.30;1.00;;;;;;5013700;28;20415;-52
2024/01/17 10:17:06;;;;;;;12.70;7.20;;;0.30;1.00;;;;;;5012004;28;20422;-52
2024/01/17 10:19:32;;;;;;;14.87;6.63;;;0.30;1.00;;;;;;5013187;28;20481;-53
2024/01/17 10:22:02;;;;;;;13.63;7.33;;;0.40;1.00;;;;;;5012555;28;20682;-52
2024/01/17 10:24:30;;;;;;;11.63;6.20;;;0.40;1.00;;;;;;5012093;28;20482;-53
2024/01/17 10:26:56;;;;;;;14.10;6.87;;;0.30;1.00;;;;;;5012196;28;20439;-53
2024/01/17 10:29:21;;;;;;;12.67;6.97;;;0.30;1.00;;;;;;5012270;28;20549;-53
2024/01/17 10:31:47;;;;;;;12.53;7.00;;;0.30;1.00;;;;;;5013476;28;20204;-53
2024/01/17 10:34:13;;;;;;;13.20;7.07;;;0.50;1.00;;;;;;5012572;28;20188;-53
2024/01/17 10:36:39;;;;;;;13.60;6.90;;;0.40;1.00;;;;;;5012064;28;20548;-53
2024/01/17 10:39:05;;;;;;;13.17;7.20;;;0.60;1.00;;;;;;5011463;28;20462;-53
2024/01/17 10:41:32;;;;;;;11.90;7.30;;;0.70;1.00;;;;;;5013001;28;20418;-53
2024/01/17 10:44:02;;;;;;;14.50;6.77;;;0.70;1.00;;;;;;5012647;28;20415;-53
2024/01/17 10:46:27;;;;;;;17.07;8.00;;;0.80;1.00;;;;;;5011826;28;20407;-53
2024/01/17 10:48:54;;;;;;;12.60;6.67;;;0.80;1.00;;;;;;5012021;28;20418;-53
2024/01/17 10:51:21;;;;;;;21.23;6.60;;;0.70;1.00;;;;;;5011773;28;20196;-54
2024/01/17 10:53:50;;;;;;;11.43;6.80;;;0.80;1.00;;;;;;5012296;28;20415;-53
2024/01/17 10:56:20;;;;;;;15.60;5.90;;;0.90;1.00;;;;;;5012810;28;20451;-53
2024/01/17 10:58:55;;;;;;;11.53;7.43;;;0.90;1.00;;;;;;5011850;28;20459;-54
2024/01/17 11:01:30;;;;;;;22.13;7.20;;;0.90;1.00;;;;;;5010431;28;20919;-53
2024/01/17 11:04:02;;;;;;;17.90;8.00;;;0.80;1.00;;;;;;5012919;28;20434;-53
2024/01/17 11:06:28;;;;;;;23.10;8.37;;;0.80;1.00;;;;;;5011723;28;20411;-53
2024/01/17 11:08:55;;;;;;;10.30;6.90;;;0.90;1.00;;;;;;5012579;28;20840;-53
2024/01/17 11:11:23;;;;;;;17.43;8.00;;;0.80;1.00;;;;;;5011522;28;20887;-53
2024/01/17 11:13:50;;;;;;;16.63;7.67;;;0.80;1.00;;;;;;5011020;28;20438;-53
2024/01/17 11:16:18;;;;;;;14.50;8.37;;;0.70;1.00;;;;;;5010598;28;20609;-53
2024/01/17 11:18:46;;;;;;;13.50;7.47;;;0.80;1.00;;;;;;5012477;28;20455;-53
2024/01/17 11:21:12;;;;;;;19.77;8.30;;;0.70;1.00;;;;;;5011750;28;20458;-53
2024/01/17 11:23:40;;;;;;;16.13;7.60;;;0.70;1.00;;;;;;5012157;28;20842;-53
2024/01/17 11:26:28;;;;;;;11.83;7.37;;;0.70;1.00;;;;;;5011731;28;20420;-53
2024/01/17 11:29:09;;;;;;;15.70;7.40;;;0.80;1.00;;;;;;5011640;28;20423;-54
2024/01/17 11:32:07;;;;;;;12.97;8.43;;;0.90;1.00;;;;;;5011440;28;20457;-53
2024/01/17 11:34:32;;;;;;;15.03;6.50;;;1.00;1.00;;;;;;5010521;28;20457;-53
2024/01/17 11:36:58;;;;;;;12.30;7.80;;;1.00;1.00;;;;;;5011015;28;20907;-53
2024/01/17 11:39:24;;;;;;;12.87;8.50;;;1.10;1.00;;;;;;5011031;28;20212;-53
2024/01/17 11:41:50;;;;;;;12.37;7.40;;;1.20;1.00;;;;;;5011905;28;20233;-53
2024/01/17 11:44:18;;;;;;;15.53;8.60;;;1.30;1.00;;;;;;5011506;28;20766;-53
2024/01/17 11:46:49;;;;;;;18.97;8.80;;;1.50;1.00;;;;;;5010348;28;20172;-53
2024/01/17 11:49:15;;;;;;;19.73;7.37;;;1.60;1.00;;;;;;5011127;28;20456;-54
2024/01/17 11:51:40;;;;;;;12.10;8.43;;;1.50;1.00;;;;;;5012637;28;20425;-53
2024/01/17 11:54:11;;;;;;;15.30;7.60;;;1.50;1.00;;;;;;5011511;28;20176;-54
2024/01/17 11:56:37;;;;;;;11.43;7.40;;;1.60;1.00;;;;;;5010817;28;20650;-53
2024/01/17 11:59:08;;;;;;;16.00;8.13;;;1.80;1.00;;;;;;5010264;28;20481;-53
2024/01/17 12:01:38;;;;;;;13.67;8.10;;;1.80;1.00;;;;;;5010645;28;20215;-53
2024/01/17 12:04:14;;;;;;;16.20;8.50;;;1.90;1.00;;;;;;5010404;28;20419;-53
2024/01/17 12:06:42;;;;;;;15.00;8.33;;;1.90;1.00;;;;;;5011589;28;20417;-53
2024/01/17 12:09:15;;;;;;;15.20;7.53;;;1.80;1.00;;;;;;5011798;28;20822;-53
2024/01/17 12:11:42;;;;;;;15.83;7.90;;;1.70;1.00;;;;;;5010319;28;20513;-53
2024/01/17 12:14:08;;;;;;;14.13;7.80;;;1.70;1.00;;;;;;5010229;28;20890;-52
2024/01/17 12:16:33;;;;;;;13.33;7.77;;;1.60;1.00;;;;;;5011254;28;20438;-52
2024/01/17 12:19:01;;;;;;;12.00;7.40;;;1.60;1.00;;;;;;5010832;28;20576;-52
2024/01/17 12:21:27;;;;;;;11.00;7.13;;;1.40;1.00;;;;;;5010153;28;20747;-52
2024/01/17 12:23:52;;;;;;;13.23;8.43;;;1.30;1.00;;;;;;5008961;28;20410;-53
2024/01/17 12:26:18;;;;;;;15.60;8.27;;;1.20;1.00;;;;;;5010502;28;20618;-52
2024/01/17 12:28:45;;;;;;;13.80;7.53;;;1.30;1.00;;;;;;5010599;28;20607;-52
2024/01/17 12:31:10;;;;;;;13.40;7.53;;;1.30;1.00;;;;;;5010284;28;20218;-53
2024/01/17 12:33:37;;;;;;;14.73;7.63;;;1.30;1.00;;;;;;5009993;28;20819;-51